Time;durP1;ratioP1;P1;durP2;ratioP2;P2;SDS_P1;SDS_P2;PMS_P1;PMS_P2;Temp;Humidity;BMP_temperature;BMP_pressure;BME280_temperature;BME280_humidity;BME280_pressure;Samples;Min_cycle;Max_cycle;Signal;HPM_P1;HPM_P2
2021/09/22 00:02:06;;;;;;;15.33;12.50;;;;;;;;;;5073557;28;20445;-73
2021/09/22 00:04:34;;;;;;;16.00;13.07;;;;;;;;;;5073834;28;20441;-73
2021/09/22 00:07:02;;;;;;;15.57;12.70;;;;;;;;;;5073048;28;20474;-72
2021/09/22 00:09:30;;;;;;;14.30;11.83;;;;;;;;;;5073565;28;20437;-73
2021/09/22 00:11:57;;;;;;;13.03;11.70;;;;;;;;;;5073637;28;20471;-73
2021/09/22 00:14:24;;;;;;;15.07;12.60;;;;;;;;;;5073107;28;20444;-72
2021/09/22 00:16:52;;;;;;;13.90;12.40;;;;;;;;;;5073409;28;20444;-72
2021/09/22 00:19:19;;;;;;;19.30;13.53;;;;;;;;;;5073326;28;20450;-72
2021/09/22 00:21:46;;;;;;;14.70;12.90;;;;;;;;;;5073334;28;20475;-72
2021/09/22 00:24:15;;;;;;;16.10;12.97;;;;;;;;;;5073298;28;20436;-73
2021/09/22 00:26:42;;;;;;;17.20;12.70;;;;;;;;;;5075603;28;20562;-73
2021/09/22 00:29:09;;;;;;;14.90;13.33;;;;;;;;;;5077221;28;20995;-71
2021/09/22 00:31:37;;;;;;;17.43;13.10;;;;;;;;;;5077515;28;20468;-72
2021/09/22 00:34:04;;;;;;;13.60;12.20;;;;;;;;;;5076879;28;20452;-72
2021/09/22 00:36:32;;;;;;;18.87;14.60;;;;;;;;;;5077134;28;20449;-72
2021/09/22 00:38:59;;;;;;;17.60;13.93;;;;;;;;;;5076820;28;20454;-72
2021/09/22 00:41:27;;;;;;;16.47;13.10;;;;;;;;;;5077070;28;20529;-72
2021/09/22 00:43:55;;;;;;;15.50;13.90;;;;;;;;;;5076736;28;20444;-71
2021/09/22 00:46:22;;;;;;;15.10;13.50;;;;;;;;;;5076565;28;21006;-71
2021/09/22 00:48:49;;;;;;;19.90;15.03;;;;;;;;;;5076943;28;20447;-71
2021/09/22 00:51:16;;;;;;;17.67;13.73;;;;;;;;;;5076580;28;20949;-71
2021/09/22 00:53:44;;;;;;;18.10;14.67;;;;;;;;;;5076835;28;20444;-71
2021/09/22 00:56:11;;;;;;;23.10;15.40;;;;;;;;;;5076911;28;20436;-71
2021/09/22 00:58:39;;;;;;;14.83;13.30;;;;;;;;;;5076448;28;20452;-71
2021/09/22 01:01:07;;;;;;;18.30;14.90;;;;;;;;;;5077113;28;20439;-71
2021/09/22 01:03:34;;;;;;;16.80;14.10;;;;;;;;;;5076308;28;20443;-71
2021/09/22 01:06:01;;;;;;;20.47;15.90;;;;;;;;;;5076520;28;20833;-71
2021/09/22 01:08:29;;;;;;;18.47;15.20;;;;;;;;;;5076210;28;20444;-72
2021/09/22 01:10:57;;;;;;;17.30;15.37;;;;;;;;;;5076514;28;20510;-72
2021/09/22 01:13:24;;;;;;;17.80;13.60;;;;;;;;;;5076666;28;20801;-72
2021/09/22 01:15:52;;;;;;;17.60;14.33;;;;;;;;;;5076622;28;20456;-73
2021/09/22 01:18:22;;;;;;;22.43;14.33;;;;;;;;;;5076517;28;20440;-72
2021/09/22 01:20:50;;;;;;;18.80;15.27;;;;;;;;;;5076016;28;20455;-72
2021/09/22 01:23:19;;;;;;;16.03;14.10;;;;;;;;;;5076269;28;20479;-72
2021/09/22 01:25:47;;;;;;;19.43;14.53;;;;;;;;;;5076327;28;20570;-72
2021/09/22 01:28:15;;;;;;;22.70;15.47;;;;;;;;;;5076486;28;20477;-71
2021/09/22 01:30:43;;;;;;;23.93;15.70;;;;;;;;;;5076151;28;20451;-71
2021/09/22 01:33:11;;;;;;;20.23;14.77;;;;;;;;;;5075763;28;20963;-71
2021/09/22 01:35:39;;;;;;;17.90;15.85;;;;;;;;;;5075723;28;20444;-71
2021/09/22 01:38:07;;;;;;;18.85;13.88;;;;;;;;;;5074969;28;20199;-71
2021/09/22 01:40:36;;;;;;;18.35;15.30;;;;;;;;;;5075930;28;20197;-71
2021/09/22 01:43:04;;;;;;;21.13;15.80;;;;;;;;;;5075952;28;20197;-72
2021/09/22 01:45:32;;;;;;;22.70;15.00;;;;;;;;;;5075583;28;20446;-71
2021/09/22 01:47:59;;;;;;;21.40;16.10;;;;;;;;;;5075492;28;20289;-71
2021/09/22 01:50:26;;;;;;;22.67;14.70;;;;;;;;;;5075473;28;20508;-71
2021/09/22 01:52:54;;;;;;;19.17;15.80;;;;;;;;;;5075480;28;20538;-71
2021/09/22 01:55:23;;;;;;;17.90;14.90;;;;;;;;;;5075745;28;20792;-71
2021/09/22 01:57:52;;;;;;;19.20;15.93;;;;;;;;;;5075296;28;20553;-71
2021/09/22 02:00:19;;;;;;;20.50;15.90;;;;;;;;;;5076066;28;21023;-71
2021/09/22 02:02:46;;;;;;;24.05;17.05;;;;;;;;;;5075621;28;20446;-71
2021/09/22 02:05:14;;;;;;;24.63;17.73;;;;;;;;;;5075544;28;20193;-71
2021/09/22 02:07:41;;;;;;;21.27;17.60;;;;;;;;;;5075033;28;20500;-71
2021/09/22 02:10:09;;;;;;;18.80;15.90;;;;;;;;;;5075414;28;20450;-71
2021/09/22 02:12:36;;;;;;;19.77;16.77;;;;;;;;;;5075807;28;20857;-71
2021/09/22 02:15:05;;;;;;;21.42;16.23;;;;;;;;;;5075299;28;20451;-71
2021/09/22 02:17:32;;;;;;;21.17;16.80;;;;;;;;;;5075232;28;20201;-71
2021/09/22 02:20:00;;;;;;;19.02;15.70;;;;;;;;;;5074840;28;20450;-71
2021/09/22 02:22:27;;;;;;;19.83;17.13;;;;;;;;;;5075136;28;20295;-71
2021/09/22 02:24:54;;;;;;;19.60;15.80;;;;;;;;;;5075599;28;20547;-71
2021/09/22 02:27:21;;;;;;;19.03;16.30;;;;;;;;;;5075514;28;20472;-71
2021/09/22 02:29:49;;;;;;;21.50;17.13;;;;;;;;;;5075786;28;20449;-71
2021/09/22 02:32:17;;;;;;;22.30;15.80;;;;;;;;;;5074674;28;20198;-71
2021/09/22 02:34:45;;;;;;;18.70;14.43;;;;;;;;;;5074939;28;20791;-72
2021/09/22 02:37:12;;;;;;;19.37;15.80;;;;;;;;;;5075458;28;20627;-71
2021/09/22 02:39:39;;;;;;;24.70;16.48;;;;;;;;;;5074531;28;20441;-71
2021/09/22 02:42:07;;;;;;;22.60;16.30;;;;;;;;;;5074468;28;20744;-71
2021/09/22 02:44:34;;;;;;;24.27;18.15;;;;;;;;;;5074754;28;20279;-71
2021/09/22 02:47:01;;;;;;;24.90;17.30;;;;;;;;;;5074555;28;20217;-71
2021/09/22 02:49:30;;;;;;;24.83;17.75;;;;;;;;;;5074109;28;20477;-71
2021/09/22 02:51:57;;;;;;;20.55;17.52;;;;;;;;;;5074593;28;20314;-71
2021/09/22 02:54:24;;;;;;;21.70;17.58;;;;;;;;;;5075184;28;20207;-72
2021/09/22 02:56:53;;;;;;;21.70;16.90;;;;;;;;;;5074461;28;20208;-72
2021/09/22 02:59:20;;;;;;;20.98;15.73;;;;;;;;;;5074869;28;20446;-71
2021/09/22 03:01:47;;;;;;;26.77;18.30;;;;;;;;;;5074455;28;20197;-72
2021/09/22 03:04:14;;;;;;;20.50;16.52;;;;;;;;;;5074020;28;20448;-71
2021/09/22 03:06:43;;;;;;;23.23;19.70;;;;;;;;;;5074259;28;20689;-71
2021/09/22 03:09:10;;;;;;;22.42;17.20;;;;;;;;;;5074265;28;20200;-71
2021/09/22 03:11:37;;;;;;;26.50;19.30;;;;;;;;;;5073869;28;20214;-72
2021/09/22 03:14:05;;;;;;;24.45;19.83;;;;;;;;;;5074700;28;20474;-71
2021/09/22 03:16:32;;;;;;;24.52;18.98;;;;;;;;;;5074044;28;20203;-70
2021/09/22 03:18:59;;;;;;;23.60;19.60;;;;;;;;;;5074095;28;20253;-71
2021/09/22 03:21:27;;;;;;;25.10;18.42;;;;;;;;;;5074348;28;20478;-71
2021/09/22 03:23:56;;;;;;;26.13;18.65;;;;;;;;;;5074010;28;20196;-71
2021/09/22 03:26:23;;;;;;;20.00;16.27;;;;;;;;;;5073877;28;20226;-70
2021/09/22 03:28:51;;;;;;;23.37;17.20;;;;;;;;;;5073735;28;20229;-71
2021/09/22 03:31:18;;;;;;;22.42;18.27;;;;;;;;;;5073773;28;21107;-71
2021/09/22 03:33:45;;;;;;;21.25;17.23;;;;;;;;;;5074013;28;20550;-71
2021/09/22 03:36:12;;;;;;;21.50;18.08;;;;;;;;;;5074169;28;20290;-72
2021/09/22 03:38:40;;;;;;;30.80;18.65;;;;;;;;;;5074112;28;20203;-71
2021/09/22 03:41:08;;;;;;;23.23;17.70;;;;;;;;;;5074215;28;20195;-70
2021/09/22 03:43:35;;;;;;;25.25;18.83;;;;;;;;;;5073739;28;20193;-71
2021/09/22 03:46:05;;;;;;;32.53;20.20;;;;;;;;;;5073329;28;20293;-71
2021/09/22 03:48:32;;;;;;;24.35;17.52;;;;;;;;;;5073985;28;20290;-71
2021/09/22 03:50:59;;;;;;;25.40;18.10;;;;;;;;;;5073348;28;20199;-70
2021/09/22 03:53:26;;;;;;;23.67;18.73;;;;;;;;;;5073289;28;20198;-71
2021/09/22 03:55:53;;;;;;;29.15;19.60;;;;;;;;;;5074416;28;20222;-71
2021/09/22 03:58:22;;;;;;;25.55;17.80;;;;;;;;;;5073307;28;20199;-71
2021/09/22 04:00:49;;;;;;;22.77;17.98;;;;;;;;;;5072604;28;20192;-72
2021/09/22 04:03:16;;;;;;;21.42;16.60;;;;;;;;;;5074164;28;20287;-71
2021/09/22 04:05:44;;;;;;;25.75;17.98;;;;;;;;;;5073506;28;20193;-72
2021/09/22 04:08:11;;;;;;;24.63;17.40;;;;;;;;;;5073798;28;20228;-71
2021/09/22 04:10:38;;;;;;;21.40;16.73;;;;;;;;;;5073084;28;20197;-71
2021/09/22 04:13:05;;;;;;;21.05;17.23;;;;;;;;;;5061496;28;20650;-72
2021/09/22 04:15:34;;;;;;;22.52;16.90;;;;;;;;;;5052724;28;20289;-71
2021/09/22 04:18:01;;;;;;;20.75;16.83;;;;;;;;;;5052664;28;20206;-72
2021/09/22 04:20:29;;;;;;;23.42;16.98;;;;;;;;;;5052696;28;20300;-72
2021/09/22 04:22:56;;;;;;;24.27;18.33;;;;;;;;;;5053000;28;20252;-71
2021/09/22 04:25:24;;;;;;;25.60;18.00;;;;;;;;;;5052948;28;20224;-72
2021/09/22 04:27:51;;;;;;;24.13;16.17;;;;;;;;;;5057206;28;20231;-72
2021/09/22 04:30:18;;;;;;;22.17;16.25;;;;;;;;;;5073316;28;20558;-71
2021/09/22 04:32:47;;;;;;;23.00;18.38;;;;;;;;;;5073589;28;20200;-73
2021/09/22 04:35:14;;;;;;;25.73;17.75;;;;;;;;;;5072902;28;20205;-72
2021/09/22 04:37:41;;;;;;;23.55;18.33;;;;;;;;;;5073240;28;20233;-71
2021/09/22 04:40:11;;;;;;;22.65;18.25;;;;;;;;;;5073171;28;20207;-71
2021/09/22 04:42:38;;;;;;;22.10;17.83;;;;;;;;;;5080506;28;20202;-71
2021/09/22 04:45:06;;;;;;;23.38;17.60;;;;;;;;;;5092630;28;20447;-71
2021/09/22 04:47:34;;;;;;;24.00;18.25;;;;;;;;;;5092871;28;20689;-71
2021/09/22 04:50:03;;;;;;;25.20;18.05;;;;;;;;;;5092933;28;20203;-71
2021/09/22 04:52:30;;;;;;;26.17;18.70;;;;;;;;;;5094005;28;20193;-71
2021/09/22 04:54:58;;;;;;;27.20;18.00;;;;;;;;;;5093546;28;20192;-71
2021/09/22 04:57:25;;;;;;;25.27;17.15;;;;;;;;;;5093198;28;20557;-71
2021/09/22 04:59:52;;;;;;;27.90;17.27;;;;;;;;;;5093468;28;20283;-71
2021/09/22 05:02:19;;;;;;;23.55;18.60;;;;;;;;;;5093705;28;20205;-71
2021/09/22 05:04:46;;;;;;;26.52;19.13;;;;;;;;;;5093032;28;20290;-71
2021/09/22 05:07:15;;;;;;;32.75;20.90;;;;;;;;;;5092874;28;20215;-71
2021/09/22 05:09:42;;;;;;;28.67;19.10;;;;;;;;;;5093021;28;20192;-71
2021/09/22 05:12:09;;;;;;;25.52;18.83;;;;;;;;;;5094291;28;20195;-71
2021/09/22 05:14:37;;;;;;;27.10;20.33;;;;;;;;;;5096382;28;20239;-71
2021/09/22 05:17:04;;;;;;;26.88;18.63;;;;;;;;;;5096355;28;20196;-71
2021/09/22 05:19:31;;;;;;;25.88;18.95;;;;;;;;;;5096633;28;20202;-71
2021/09/22 05:21:58;;;;;;;31.38;19.25;;;;;;;;;;5096659;28;20195;-71
2021/09/22 05:24:27;;;;;;;30.90;19.05;;;;;;;;;;5096213;28;20199;-70
2021/09/22 05:26:54;;;;;;;28.47;18.97;;;;;;;;;;5096315;28;20284;-71
2021/09/22 05:29:21;;;;;;;25.25;17.63;;;;;;;;;;5096381;28;20478;-71
2021/09/22 05:31:48;;;;;;;25.63;19.23;;;;;;;;;;5096039;28;20199;-71
2021/09/22 05:34:16;;;;;;;30.67;21.17;;;;;;;;;;5096297;28;20443;-71
2021/09/22 05:36:43;;;;;;;28.45;20.55;;;;;;;;;;5096015;28;20286;-71
2021/09/22 05:39:10;;;;;;;31.70;20.63;;;;;;;;;;5096467;28;20193;-72
2021/09/22 05:41:40;;;;;;;25.80;18.40;;;;;;;;;;5096473;28;20196;-71
2021/09/22 05:44:07;;;;;;;30.48;21.05;;;;;;;;;;5095104;28;20203;-71
2021/09/22 05:46:34;;;;;;;26.33;18.20;;;;;;;;;;5095733;28;20549;-71
2021/09/22 05:49:01;;;;;;;25.90;17.65;;;;;;;;;;5095881;28;20215;-71
2021/09/22 05:51:28;;;;;;;27.85;19.73;;;;;;;;;;5095960;28;20222;-71
2021/09/22 05:53:55;;;;;;;26.45;18.83;;;;;;;;;;5095907;28;20195;-71
2021/09/22 05:56:23;;;;;;;22.20;17.30;;;;;;;;;;5096480;28;20193;-72
2021/09/22 05:58:51;;;;;;;34.92;19.48;;;;;;;;;;5095460;28;20198;-72
2021/09/22 06:01:19;;;;;;;27.98;18.95;;;;;;;;;;5095542;28;20206;-72
2021/09/22 06:03:46;;;;;;;24.65;19.17;;;;;;;;;;5095403;28;20197;-71
2021/09/22 06:06:13;;;;;;;30.60;19.58;;;;;;;;;;5095330;28;20206;-71
2021/09/22 06:08:40;;;;;;;30.40;20.55;;;;;;;;;;5095821;28;20574;-71
2021/09/22 06:11:07;;;;;;;26.42;19.10;;;;;;;;;;5095709;28;20200;-70
2021/09/22 06:13:35;;;;;;;33.00;19.30;;;;;;;;;;5095181;28;20653;-72
2021/09/22 06:16:03;;;;;;;25.95;18.30;;;;;;;;;;5095794;28;20202;-71
2021/09/22 06:18:30;;;;;;;25.77;20.35;;;;;;;;;;5095740;28;20294;-71
2021/09/22 06:20:58;;;;;;;27.67;19.03;;;;;;;;;;5095480;28;20596;-71
2021/09/22 06:23:25;;;;;;;29.02;19.27;;;;;;;;;;5094865;28;20440;-71
2021/09/22 06:25:52;;;;;;;30.58;19.77;;;;;;;;;;5094944;28;20197;-71
2021/09/22 06:28:20;;;;;;;28.23;19.58;;;;;;;;;;5095233;28;20250;-71
2021/09/22 06:30:47;;;;;;;32.85;19.60;;;;;;;;;;5095722;28;20196;-71
2021/09/22 06:33:15;;;;;;;31.38;20.38;;;;;;;;;;5095421;28;20200;-71
2021/09/22 06:35:43;;;;;;;34.97;19.85;;;;;;;;;;5095127;28;20222;-70
2021/09/22 06:38:10;;;;;;;32.17;19.33;;;;;;;;;;5094816;28;20246;-71
2021/09/22 06:40:38;;;;;;;38.10;21.70;;;;;;;;;;5095005;28;20448;-70
2021/09/22 06:43:06;;;;;;;32.20;20.83;;;;;;;;;;5095138;28;20476;-72
2021/09/22 06:45:33;;;;;;;30.45;20.85;;;;;;;;;;5094556;28;20450;-72
2021/09/22 06:48:00;;;;;;;30.90;21.60;;;;;;;;;;5094448;28;20220;-72
2021/09/22 06:50:29;;;;;;;32.10;20.47;;;;;;;;;;5094562;28;20951;-71
2021/09/22 06:52:57;;;;;;;36.17;21.60;;;;;;;;;;5094612;28;20440;-72
2021/09/22 06:55:24;;;;;;;43.23;23.43;;;;;;;;;;5095119;28;20446;-71
2021/09/22 06:57:51;;;;;;;32.80;22.23;;;;;;;;;;5094144;28;20458;-71
2021/09/22 07:00:19;;;;;;;34.40;20.37;;;;;;;;;;5093756;28;20475;-71
2021/09/22 07:02:46;;;;;;;31.87;19.17;;;;;;;;;;5094049;28;20431;-72
2021/09/22 07:05:14;;;;;;;27.87;20.17;;;;;;;;;;5094246;28;20933;-72
2021/09/22 07:07:46;;;;;;;36.13;22.23;;;;;;;;;;5095223;28;20563;-71
2021/09/22 07:10:13;;;;;;;39.40;23.40;;;;;;;;;;5094174;28;20432;-72
2021/09/22 07:12:40;;;;;;;31.57;21.00;;;;;;;;;;5094100;28;20534;-75
2021/09/22 07:15:08;;;;;;;34.00;23.90;;;;;;;;;;5094318;28;20435;-73
2021/09/22 07:17:35;;;;;;;32.67;22.87;;;;;;;;;;5093956;28;20440;-73
2021/09/22 07:20:03;;;;;;;37.50;25.47;;;;;;;;;;5093968;28;20449;-74
2021/09/22 07:22:30;;;;;;;37.13;25.27;;;;;;;;;;5094279;28;20844;-74
2021/09/22 07:24:59;;;;;;;45.00;26.30;;;;;;;;;;5094290;28;20437;-73
2021/09/22 07:27:26;;;;;;;38.37;25.47;;;;;;;;;;5093474;28;20462;-74
2021/09/22 07:29:53;;;;;;;41.07;25.87;;;;;;;;;;5094415;28;20516;-72
2021/09/22 07:32:21;;;;;;;42.40;27.20;;;;;;;;;;5094017;28;20444;-72
2021/09/22 07:34:48;;;;;;;46.37;28.40;;;;;;;;;;5093497;28;20539;-72
2021/09/22 07:37:18;;;;;;;45.83;27.37;;;;;;;;;;5093793;28;20797;-74
2021/09/22 07:39:45;;;;;;;43.23;29.83;;;;;;;;;;5093357;28;20440;-73
2021/09/22 07:42:13;;;;;;;50.33;29.47;;;;;;;;;;5092969;28;20443;-73
2021/09/22 07:44:41;;;;;;;51.23;29.27;;;;;;;;;;5093363;28;20440;-73
2021/09/22 07:47:08;;;;;;;47.67;30.17;;;;;;;;;;5093538;28;20522;-73
2021/09/22 07:49:36;;;;;;;51.93;31.80;;;;;;;;;;5093548;28;20481;-74
2021/09/22 07:52:03;;;;;;;49.10;30.97;;;;;;;;;;5093480;28;20913;-74
2021/09/22 07:54:30;;;;;;;48.80;30.80;;;;;;;;;;5093836;28;20441;-74
2021/09/22 07:56:58;;;;;;;44.03;29.37;;;;;;;;;;5094195;28;20446;-73
2021/09/22 07:59:26;;;;;;;45.47;30.10;;;;;;;;;;5094011;28;20917;-74
2021/09/22 08:01:53;;;;;;;50.30;31.93;;;;;;;;;;5092969;28;20450;-73
2021/09/22 08:04:21;;;;;;;44.70;28.80;;;;;;;;;;5094078;28;20471;-73
2021/09/22 08:06:48;;;;;;;48.07;30.27;;;;;;;;;;5093930;28;20487;-73
2021/09/22 08:09:16;;;;;;;45.00;31.87;;;;;;;;;;5092812;28;21011;-73
2021/09/22 08:11:44;;;;;;;44.03;29.80;;;;;;;;;;5093276;28;20448;-73
2021/09/22 08:14:11;;;;;;;46.60;29.10;;;;;;;;;;5093532;28;20450;-73
2021/09/22 08:16:40;;;;;;;50.60;30.13;;;;;;;;;;5093370;28;20444;-73
2021/09/22 08:19:07;;;;;;;43.73;29.97;;;;;;;;;;5093965;28;20443;-73
2021/09/22 08:21:34;;;;;;;48.00;30.90;;;;;;;;;;5092982;28;20485;-73
2021/09/22 08:24:02;;;;;;;45.40;32.03;;;;;;;;;;5093496;28;20444;-73
2021/09/22 08:26:29;;;;;;;45.03;32.07;;;;;;;;;;5093447;28;20439;-73
2021/09/22 08:28:57;;;;;;;43.30;31.70;;;;;;;;;;5092981;28;20495;-72
2021/09/22 08:31:24;;;;;;;41.90;28.87;;;;;;;;;;5093035;28;20450;-74
2021/09/22 08:33:53;;;;;;;44.93;31.87;;;;;;;;;;5093282;28;20463;-74
2021/09/22 08:36:20;;;;;;;46.40;33.00;;;;;;;;;;5093045;28;20462;-75
2021/09/22 08:38:47;;;;;;;46.37;31.20;;;;;;;;;;5093016;28;20448;-74
2021/09/22 08:41:15;;;;;;;43.50;31.57;;;;;;;;;;5092739;28;20452;-73
2021/09/22 08:43:43;;;;;;;47.00;31.70;;;;;;;;;;5093280;28;20770;-73
2021/09/22 08:46:10;;;;;;;45.03;31.80;;;;;;;;;;5093086;28;20448;-73
2021/09/22 08:48:37;;;;;;;45.00;31.07;;;;;;;;;;5096949;28;20836;-74
2021/09/22 08:51:06;;;;;;;42.20;30.40;;;;;;;;;;5096934;28;20484;-73
2021/09/22 08:53:33;;;;;;;46.03;30.20;;;;;;;;;;5097006;28;20842;-74
2021/09/22 08:56:01;;;;;;;44.77;30.10;;;;;;;;;;5097208;28;20541;-74
2021/09/22 08:58:29;;;;;;;42.97;29.87;;;;;;;;;;5097494;28;20488;-73
2021/09/22 09:01:11;;;;;;;44.43;31.27;;;;;;;;;;5096662;28;20802;-73
2021/09/22 09:03:41;;;;;;;39.03;28.37;;;;;;;;;;5096678;28;20425;-73
2021/09/22 09:06:20;;;;;;;42.67;31.13;;;;;;;;;;5096523;28;20425;-73
2021/09/22 09:08:48;;;;;;;38.90;30.93;;;;;;;;;;5096416;28;20473;-74
2021/09/22 09:11:16;;;;;;;42.50;31.33;;;;;;;;;;5096495;28;20435;-75
2021/09/22 09:13:46;;;;;;;44.93;28.20;;;;;;;;;;5096561;28;20436;-75
2021/09/22 09:16:17;;;;;;;38.90;31.07;;;;;;;;;;5096756;28;20447;-74
2021/09/22 09:18:48;;;;;;;39.60;29.93;;;;;;;;;;5096860;28;20435;-75
2021/09/22 09:21:16;;;;;;;35.87;28.20;;;;;;;;;;5096235;28;20493;-74
2021/09/22 09:23:50;;;;;;;38.87;31.00;;;;;;;;;;5095998;28;20954;-73
2021/09/22 09:26:18;;;;;;;32.93;22.73;;;;;;;;;;5096701;28;20433;-75
2021/09/22 09:28:49;;;;;;;33.97;25.83;;;;;;;;;;5095959;28;20499;-74
2021/09/22 09:31:16;;;;;;;36.80;26.10;;;;;;;;;;5096399;28;20512;-74
2021/09/22 09:33:44;;;;;;;35.10;23.30;;;;;;;;;;5096748;28;20435;-74
2021/09/22 09:36:23;;;;;;;35.10;23.03;;;;;;;;;;5095970;28;20451;-74
2021/09/22 09:38:56;;;;;;;32.03;24.20;;;;;;;;;;5097116;28;20903;-74
2021/09/22 09:41:24;;;;;;;28.97;21.30;;;;;;;;;;5096382;28;20474;-73
2021/09/22 09:43:52;;;;;;;32.80;24.77;;;;;;;;;;5095980;28;20795;-74
2021/09/22 09:46:23;;;;;;;25.83;20.63;;;;;;;;;;5096040;28;20443;-74
2021/09/22 09:48:57;;;;;;;30.57;21.70;;;;;;;;;;5095654;28;20483;-74
2021/09/22 09:51:31;;;;;;;28.90;21.30;;;;;;;;;;5096007;28;20447;-74
2021/09/22 09:54:06;;;;;;;29.07;21.90;;;;;;;;;;5096438;28;20435;-73
2021/09/22 09:56:33;;;;;;;35.00;26.07;;;;;;;;;;5096334;28;20833;-73
2021/09/22 09:59:02;;;;;;;32.97;23.57;;;;;;;;;;5094571;28;20456;-73
2021/09/22 10:01:36;;;;;;;41.50;22.50;;;;;;;;;;5095700;28;20447;-73
2021/09/22 10:04:04;;;;;;;31.43;21.90;;;;;;;;;;5096627;28;20429;-73
2021/09/22 10:06:31;;;;;;;38.70;26.13;;;;;;;;;;5096175;28;20782;-74
2021/09/22 10:08:59;;;;;;;34.10;22.50;;;;;;;;;;5095863;28;20569;-74
2021/09/22 10:11:27;;;;;;;33.40;24.20;;;;;;;;;;5095347;28;20449;-73
2021/09/22 10:13:55;;;;;;;29.37;22.10;;;;;;;;;;5095314;28;20801;-74
2021/09/22 10:16:22;;;;;;;30.90;21.97;;;;;;;;;;5095747;28;20808;-74
2021/09/22 10:18:50;;;;;;;29.70;22.60;;;;;;;;;;5095462;28;20443;-74
2021/09/22 10:21:18;;;;;;;29.73;23.73;;;;;;;;;;5095062;28;20507;-74
2021/09/22 10:23:46;;;;;;;36.50;24.33;;;;;;;;;;5095140;28;20874;-74
2021/09/22 10:26:13;;;;;;;33.17;23.20;;;;;;;;;;5095325;28;20839;-74
2021/09/22 10:28:43;;;;;;;27.57;22.40;;;;;;;;;;5095420;28;20511;-75
2021/09/22 10:31:16;;;;;;;35.17;24.33;;;;;;;;;;5094973;28;20518;-74
2021/09/22 10:33:45;;;;;;;37.93;25.97;;;;;;;;;;5095761;28;20444;-74
2021/09/22 10:36:13;;;;;;;34.57;23.00;;;;;;;;;;5095336;28;20479;-73
2021/09/22 10:38:45;;;;;;;30.10;23.83;;;;;;;;;;5095272;28;20452;-73
2021/09/22 10:41:13;;;;;;;29.97;21.70;;;;;;;;;;5094739;28;20448;-73
2021/09/22 10:43:43;;;;;;;29.10;24.53;;;;;;;;;;5095301;28;20574;-73
2021/09/22 10:46:13;;;;;;;28.40;22.57;;;;;;;;;;5095221;28;20436;-74
2021/09/22 10:48:41;;;;;;;21.50;17.60;;;;;;;;;;5094519;28;20463;-74
2021/09/22 10:51:10;;;;;;;24.53;18.60;;;;;;;;;;5094573;28;20436;-73
2021/09/22 10:53:41;;;;;;;23.37;17.60;;;;;;;;;;5094801;28;20440;-73
2021/09/22 10:56:10;;;;;;;20.77;18.07;;;;;;;;;;5094836;28;20940;-74
2021/09/22 10:58:42;;;;;;;25.23;17.93;;;;;;;;;;5094926;28;20443;-73
2021/09/22 11:01:09;;;;;;;20.83;17.20;;;;;;;;;;5094464;28;20897;-73
2021/09/22 11:03:55;;;;;;;22.53;18.10;;;;;;;;;;5094684;28;20436;-73
2021/09/22 11:06:41;;;;;;;20.97;17.60;;;;;;;;;;5094750;28;20447;-73
2021/09/22 11:09:10;;;;;;;28.00;19.80;;;;;;;;;;5094412;28;20482;-73
2021/09/22 11:11:52;;;;;;;21.93;18.63;;;;;;;;;;5094269;28;20448;-74
2021/09/22 11:14:34;;;;;;;25.60;19.17;;;;;;;;;;5094729;28;20519;-74
2021/09/22 11:17:04;;;;;;;20.70;15.73;;;;;;;;;;5092077;28;20510;-73
2021/09/22 11:19:31;;;;;;;17.80;15.20;;;;;;;;;;5094048;28;20447;-73
2021/09/22 11:22:01;;;;;;;20.00;16.80;;;;;;;;;;5094420;28;20562;-74
2021/09/22 11:24:34;;;;;;;16.30;14.20;;;;;;;;;;5094293;28;20458;-73
2021/09/22 11:27:05;;;;;;;19.43;12.77;;;;;;;;;;5094535;28;20908;-73
2021/09/22 11:29:35;;;;;;;18.40;13.57;;;;;;;;;;5093746;28;20483;-73
2021/09/22 11:32:08;;;;;;;13.97;11.10;;;;;;;;;;5094334;28;20447;-74
2021/09/22 11:34:43;;;;;;;16.47;14.23;;;;;;;;;;5094125;28;20438;-74
2021/09/22 11:37:12;;;;;;;17.00;13.20;;;;;;;;;;5093830;28;20494;-73
2021/09/22 11:39:40;;;;;;;19.37;15.00;;;;;;;;;;5093869;28;20905;-74
2021/09/22 11:42:09;;;;;;;21.80;14.90;;;;;;;;;;5093701;28;20543;-73
2021/09/22 11:44:36;;;;;;;19.90;14.77;;;;;;;;;;5093676;28;20485;-74
2021/09/22 11:47:06;;;;;;;17.87;14.03;;;;;;;;;;5094578;28;20527;-73
2021/09/22 11:49:37;;;;;;;17.47;14.77;;;;;;;;;;5093412;28;20511;-73
2021/09/22 11:52:06;;;;;;;23.50;14.13;;;;;;;;;;5094073;28;20508;-73
2021/09/22 11:54:37;;;;;;;21.00;13.93;;;;;;;;;;5094237;28;20432;-73
2021/09/22 11:57:05;;;;;;;19.17;15.80;;;;;;;;;;5093500;28;20930;-73
2021/09/22 11:59:33;;;;;;;23.60;15.83;;;;;;;;;;5093633;28;20454;-73
2021/09/22 12:02:01;;;;;;;17.50;13.90;;;;;;;;;;5093427;28;20937;-73
2021/09/22 12:04:33;;;;;;;15.90;13.23;;;;;;;;;;5093287;28;20934;-72
2021/09/22 12:07:01;;;;;;;17.87;13.73;;;;;;;;;;5093896;28;20437;-73
2021/09/22 12:09:46;;;;;;;23.63;15.43;;;;;;;;;;5094139;28;20485;-73
2021/09/22 12:12:17;;;;;;;16.37;12.83;;;;;;;;;;5093374;28;20902;-74
2021/09/22 12:14:48;;;;;;;15.60;11.37;;;;;;;;;;5093313;28;20434;-73
2021/09/22 12:17:17;;;;;;;16.03;11.20;;;;;;;;;;5093674;28;20556;-75
2021/09/22 12:19:46;;;;;;;12.23;9.80;;;;;;;;;;5093216;28;20476;-74
2021/09/22 12:22:14;;;;;;;12.87;10.40;;;;;;;;;;5095468;28;20430;-75
2021/09/22 12:24:44;;;;;;;17.60;12.23;;;;;;;;;;5096926;28;20885;-75
2021/09/22 12:27:15;;;;;;;14.33;11.93;;;;;;;;;;5096780;28;20527;-76
2021/09/22 12:29:53;;;;;;;14.83;11.53;;;;;;;;;;5096525;28;20483;-75
2021/09/22 12:32:20;;;;;;;16.43;13.87;;;;;;;;;;5096634;28;20505;-75
2021/09/22 12:34:49;;;;;;;19.27;14.67;;;;;;;;;;5096959;28;20462;-76
2021/09/22 12:37:17;;;;;;;13.63;11.30;;;;;;;;;;5096727;28;21021;-75
2021/09/22 12:39:54;;;;;;;13.13;11.23;;;;;;;;;;5096708;28;20497;-76
2021/09/22 12:42:22;;;;;;;12.67;10.60;;;;;;;;;;5097206;28;20470;-76
2021/09/22 12:44:56;;;;;;;16.47;10.57;;;;;;;;;;5096480;28;20959;-76
2021/09/22 12:47:25;;;;;;;13.20;11.20;;;;;;;;;;5096929;28;20924;-74
2021/09/22 12:50:11;;;;;;;15.13;11.10;;;;;;;;;;5096930;28;20652;-75
2021/09/22 12:52:38;;;;;;;14.77;10.40;;;;;;;;;;5097615;28;20512;-75
2021/09/22 12:55:16;;;;;;;14.03;12.57;;;;;;;;;;5097127;28;20438;-75
2021/09/22 12:57:43;;;;;;;15.97;12.73;;;;;;;;;;5096633;28;20549;-75
2021/09/22 13:00:33;;;;;;;16.73;12.20;;;;;;;;;;5096694;28;20532;-75
2021/09/22 13:03:14;;;;;;;17.60;13.37;;;;;;;;;;5097276;28;20423;-75
2021/09/22 13:05:44;;;;;;;13.20;11.27;;;;;;;;;;5096322;28;20493;-75
2021/09/22 13:08:11;;;;;;;17.10;10.73;;;;;;;;;;5096664;28;20435;-75
2021/09/22 13:11:06;;;;;;;12.93;10.60;;;;;;;;;;5096719;28;20476;-75
2021/09/22 13:13:54;;;;;;;11.30;9.80;;;;;;;;;;5061211;28;20448;-75
2021/09/22 13:16:33;;;;;;;10.67;8.50;;;;;;;;;;5091743;28;20457;-76
2021/09/22 13:19:01;;;;;;;12.43;10.33;;;;;;;;;;5096870;28;20785;-76
2021/09/22 13:21:30;;;;;;;13.00;11.10;;;;;;;;;;5096324;28;20435;-77
2021/09/22 13:23:59;;;;;;;12.80;10.73;;;;;;;;;;5096071;28;20524;-77
2021/09/22 13:26:26;;;;;;;14.83;11.40;;;;;;;;;;5096429;28;20520;-73
2021/09/22 13:28:54;;;;;;;10.87;9.77;;;;;;;;;;5095839;28;20476;-76
2021/09/22 13:31:21;;;;;;;13.17;10.27;;;;;;;;;;5096395;28;20484;-72
2021/09/22 13:33:49;;;;;;;15.47;11.10;;;;;;;;;;5094749;28;20441;-77
2021/09/22 13:36:17;;;;;;;12.50;10.20;;;;;;;;;;5096364;28;20498;-80
2021/09/22 13:38:45;;;;;;;11.23;9.90;;;;;;;;;;5096048;28;20440;-77
2021/09/22 13:41:13;;;;;;;10.57;8.53;;;;;;;;;;5095832;28;20456;-76
2021/09/22 13:43:40;;;;;;;16.00;8.93;;;;;;;;;;5095735;28;20437;-76
2021/09/22 13:46:07;;;;;;;12.20;10.10;;;;;;;;;;5095934;28;20529;-76
2021/09/22 13:48:35;;;;;;;12.53;11.23;;;;;;;;;;5095775;28;20535;-77
2021/09/22 13:51:03;;;;;;;15.30;10.73;;;;;;;;;;5095620;28;20483;-76
2021/09/22 13:53:31;;;;;;;14.57;10.50;;;;;;;;;;5095947;28;20526;-77
2021/09/22 13:56:00;;;;;;;17.30;11.27;;;;;;;;;;5095619;28;20841;-77
2021/09/22 13:58:28;;;;;;;15.13;12.00;;;;;;;;;;5096007;28;20446;-77
2021/09/22 14:00:56;;;;;;;15.43;11.27;;;;;;;;;;5095493;28;20481;-78
2021/09/22 14:03:23;;;;;;;11.03;9.93;;;;;;;;;;5096411;28;20440;-77
2021/09/22 14:05:50;;;;;;;15.90;12.17;;;;;;;;;;5095122;28;20447;-78
2021/09/22 14:08:18;;;;;;;12.90;11.53;;;;;;;;;;5094913;28;20455;-75
2021/09/22 14:10:46;;;;;;;15.80;12.60;;;;;;;;;;5095461;28;20476;-77
2021/09/22 14:13:16;;;;;;;15.33;12.17;;;;;;;;;;5095783;28;20447;-76
2021/09/22 14:15:45;;;;;;;16.20;12.10;;;;;;;;;;5095245;28;20425;-76
2021/09/22 14:18:12;;;;;;;16.80;13.17;;;;;;;;;;5095141;28;20459;-77
2021/09/22 14:20:41;;;;;;;19.97;13.83;;;;;;;;;;5096345;28;20444;-76
2021/09/22 14:23:11;;;;;;;17.40;11.67;;;;;;;;;;5095300;28;20475;-76
2021/09/22 14:25:38;;;;;;;18.30;12.93;;;;;;;;;;5095385;28;20484;-77